sensor_id;sensor_type;location;lat;lon;timestamp;pressure;altitude;pressure_sealevel;temperature;humidity
21100;BME280;10708;50.824;4.408;2023-01-24T00:00:21;102695.38;;;2.41;100.00
21100;BME280;10708;50.824;4.408;2023-01-24T00:05:23;102700.47;;;2.37;100.00
21100;BME280;10708;50.824;4.408;2023-01-24T00:10:27;102703.22;;;2.43;100.00
21100;BME280;10708;50.824;4.408;2023-01-24T00:15:30;102700.69;;;2.44;100.00
21100;BME280;10708;50.824;4.408;2023-01-24T00:20:33;102701.63;;;2.46;100.00
21100;BME280;10708;50.824;4.408;2023-01-24T00:25:36;102698.03;;;2.43;100.00
21100;BME280;10708;50.824;4.408;2023-01-24T00:30:39;102693.72;;;2.43;100.00
21100;BME280;10708;50.824;4.408;2023-01-24T00:35:41;102691.22;;;2.46;100.00
21100;BME280;10708;50.824;4.408;2023-01-24T00:40:45;102692.16;;;2.48;100.00
21100;BME280;10708;50.824;4.408;2023-01-24T00:45:48;102681.81;;;2.51;100.00
21100;BME280;10708;50.824;4.408;2023-01-24T00:50:50;102689.63;;;2.51;100.00
21100;BME280;10708;50.824;4.408;2023-01-24T00:55:54;102681.78;;;2.50;100.00
21100;BME280;10708;50.824;4.408;2023-01-24T01:00:57;102683.53;;;2.51;100.00
21100;BME280;10708;50.824;4.408;2023-01-24T01:06:05;102687.78;;;2.47;100.00
21100;BME280;10708;50.824;4.408;2023-01-24T01:11:09;102677.19;;;2.41;100.00
21100;BME280;10708;50.824;4.408;2023-01-24T01:16:13;102692.88;;;2.44;100.00
21100;BME280;10708;50.824;4.408;2023-01-24T01:21:19;102689.34;;;2.42;100.00
21100;BME280;10708;50.824;4.408;2023-01-24T01:26:23;102693.72;;;2.43;100.00
21100;BME280;10708;50.824;4.408;2023-01-24T01:31:25;102697.19;;;2.44;100.00
21100;BME280;10708;50.824;4.408;2023-01-24T01:36:28;102688.41;;;2.40;100.00
21100;BME280;10708;50.824;4.408;2023-01-24T01:41:31;102696.38;;;2.45;100.00
21100;BME280;10708;50.824;4.408;2023-01-24T01:46:40;102697.91;;;2.38;100.00
21100;BME280;10708;50.824;4.408;2023-01-24T01:51:45;102692.00;;;2.44;100.00
21100;BME280;10708;50.824;4.408;2023-01-24T01:56:53;102704.06;;;2.42;100.00
21100;BME280;10708;50.824;4.408;2023-01-24T02:01:59;102685.81;;;2.40;100.00
21100;BME280;10708;50.824;4.408;2023-01-24T02:07:06;102675.47;;;2.42;100.00
21100;BME280;10708;50.824;4.408;2023-01-24T02:12:16;102678.00;;;2.40;100.00
21100;BME280;10708;50.824;4.408;2023-01-24T02:17:20;102673.50;;;2.35;100.00
21100;BME280;10708;50.824;4.408;2023-01-24T02:22:27;102672.81;;;2.40;100.00
21100;BME280;10708;50.824;4.408;2023-01-24T02:27:34;102666.00;;;2.44;100.00
21100;BME280;10708;50.824;4.408;2023-01-24T02:32:37;102662.44;;;2.42;100.00
21100;BME280;10708;50.824;4.408;2023-01-24T02:37:39;102661.53;;;2.40;100.00
21100;BME280;10708;50.824;4.408;2023-01-24T02:42:43;102657.19;;;2.40;100.00
21100;BME280;10708;50.824;4.408;2023-01-24T02:47:48;102657.41;;;2.46;100.00
21100;BME280;10708;50.824;4.408;2023-01-24T02:52:51;102661.72;;;2.46;100.00
21100;BME280;10708;50.824;4.408;2023-01-24T02:58:12;102668.47;;;2.39;100.00
21100;BME280;10708;50.824;4.408;2023-01-24T03:03:14;102671.09;;;2.41;100.00
21100;BME280;10708;50.824;4.408;2023-01-24T03:08:17;102660.72;;;2.42;100.00
21100;BME280;10708;50.824;4.408;2023-01-24T03:13:22;102650.34;;;2.42;100.00
21100;BME280;10708;50.824;4.408;2023-01-24T03:18:41;102655.69;;;2.47;100.00
21100;BME280;10708;50.824;4.408;2023-01-24T03:24:02;102647.59;;;2.38;100.00
21100;BME280;10708;50.824;4.408;2023-01-24T03:29:23;102650.25;;;2.39;100.00
21100;BME280;10708;50.824;4.408;2023-01-24T03:34:43;102645.91;;;2.40;100.00
21100;BME280;10708;50.824;4.408;2023-01-24T03:39:50;102657.31;;;2.43;100.00
21100;BME280;10708;50.824;4.408;2023-01-24T03:45:02;102651.09;;;2.38;100.00
21100;BME280;10708;50.824;4.408;2023-01-24T03:50:10;102650.09;;;2.35;100.00
21100;BME280;10708;50.824;4.408;2023-01-24T03:55:30;102657.97;;;2.36;100.00
21100;BME280;10708;50.824;4.408;2023-01-24T04:00:34;102646.69;;;2.36;100.00
21100;BME280;10708;50.824;4.408;2023-01-24T04:05:37;102646.00;;;2.43;100.00
21100;BME280;10708;50.824;4.408;2023-01-24T04:10:39;102649.56;;;2.45;100.00
21100;BME280;10708;50.824;4.408;2023-01-24T04:15:44;102649.50;;;2.43;100.00
21100;BME280;10708;50.824;4.408;2023-01-24T04:20:46;102646.91;;;2.43;100.00
21100;BME280;10708;50.824;4.408;2023-01-24T04:25:49;102646.72;;;2.37;100.00
21100;BME280;10708;50.824;4.408;2023-01-24T04:31:01;102643.25;;;2.37;100.00
21100;BME280;10708;50.824;4.408;2023-01-24T04:36:04;102645.72;;;2.34;100.00
21100;BME280;10708;50.824;4.408;2023-01-24T04:41:07;102645.78;;;2.35;100.00
21100;BME280;10708;50.824;4.408;2023-01-24T04:46:14;102652.59;;;2.32;100.00
21100;BME280;10708;50.824;4.408;2023-01-24T04:51:16;102642.41;;;2.38;100.00
21100;BME280;10708;50.824;4.408;2023-01-24T04:56:19;102651.09;;;2.38;100.00
21100;BME280;10708;50.824;4.408;2023-01-24T05:01:22;102654.31;;;2.31;100.00
21100;BME280;10708;50.824;4.408;2023-01-24T05:06:25;102643.78;;;2.27;100.00
21100;BME280;10708;50.824;4.408;2023-01-24T05:11:27;102643.84;;;2.28;100.00
21100;BME280;10708;50.824;4.408;2023-01-24T05:16:32;102646.63;;;2.34;100.00
21100;BME280;10708;50.824;4.408;2023-01-24T05:21:36;102651.03;;;2.37;100.00
21100;BME280;10708;50.824;4.408;2023-01-24T05:26:39;102657.97;;;2.36;100.00
21100;BME280;10708;50.824;4.408;2023-01-24T05:31:43;102654.19;;;2.27;100.00
21100;BME280;10708;50.824;4.408;2023-01-24T05:36:45;102655.06;;;2.27;100.00
21100;BME280;10708;50.824;4.408;2023-01-24T05:41:48;102649.16;;;2.33;100.00
21100;BME280;10708;50.824;4.408;2023-01-24T05:46:51;102656.69;;;2.23;100.00
21100;BME280;10708;50.824;4.408;2023-01-24T05:51:53;102666.09;;;2.20;100.00
21100;BME280;10708;50.824;4.408;2023-01-24T05:56:56;102665.31;;;2.22;100.00
21100;BME280;10708;50.824;4.408;2023-01-24T06:01:59;102661.88;;;2.23;100.00
21100;BME280;10708;50.824;4.408;2023-01-24T06:07:02;102667.91;;;2.22;100.00
21100;BME280;10708;50.824;4.408;2023-01-24T06:12:05;102671.34;;;2.21;100.00
21100;BME280;10708;50.824;4.408;2023-01-24T06:17:08;102675.94;;;2.29;100.00
21100;BME280;10708;50.824;4.408;2023-01-24T06:22:19;102694.06;;;2.27;100.00
21100;BME280;10708;50.824;4.408;2023-01-24T06:27:24;102692.19;;;2.23;100.00
21100;BME280;10708;50.824;4.408;2023-01-24T06:32:35;102691.25;;;2.21;100.00
21100;BME280;10708;50.824;4.408;2023-01-24T06:37:45;102701.38;;;2.12;100.00
21100;BME280;10708;50.824;4.408;2023-01-24T06:42:49;102706.78;;;2.18;100.00
21100;BME280;10708;50.824;4.408;2023-01-24T06:47:53;102714.66;;;2.21;100.00
21100;BME280;10708;50.824;4.408;2023-01-24T06:52:58;102716.31;;;2.17;100.00
21100;BME280;10708;50.824;4.408;2023-01-24T06:58:02;102718.19;;;2.23;100.00
21100;BME280;10708;50.824;4.408;2023-01-24T07:03:07;102718.09;;;2.20;100.00
21100;BME280;10708;50.824;4.408;2023-01-24T07:08:09;102727.72;;;2.22;100.00
21100;BME280;10708;50.824;4.408;2023-01-24T07:13:12;102725.00;;;2.18;100.00
21100;BME280;10708;50.824;4.408;2023-01-24T07:18:17;102730.84;;;2.12;100.00
21100;BME280;10708;50.824;4.408;2023-01-24T07:23:22;102731.72;;;2.13;100.00
21100;BME280;10708;50.824;4.408;2023-01-24T07:28:25;102737.81;;;2.13;100.00
21100;BME280;10708;50.824;4.408;2023-01-24T07:33:29;102742.84;;;2.07;100.00
21100;BME280;10708;50.824;4.408;2023-01-24T07:38:31;102753.31;;;2.10;100.00
21100;BME280;10708;50.824;4.408;2023-01-24T07:43:34;102761.69;;;2.02;100.00
21100;BME280;10708;50.824;4.408;2023-01-24T07:48:37;102763.69;;;2.10;100.00
21100;BME280;10708;50.824;4.408;2023-01-24T07:53:40;102761.09;;;2.09;100.00
21100;BME280;10708;50.824;4.408;2023-01-24T07:58:42;102780.88;;;2.05;100.00
21100;BME280;10708;50.824;4.408;2023-01-24T08:03:46;102775.78;;;2.08;100.00
21100;BME280;10708;50.824;4.408;2023-01-24T08:08:49;102778.47;;;2.11;100.00
21100;BME280;10708;50.824;4.408;2023-01-24T08:13:51;102788.16;;;2.15;100.00
21100;BME280;10708;50.824;4.408;2023-01-24T08:18:56;102784.63;;;2.13;100.00
21100;BME280;10708;50.824;4.408;2023-01-24T08:23:59;102785.44;;;2.12;100.00
21100;BME280;10708;50.824;4.408;2023-01-24T08:29:01;102791.47;;;2.11;100.00
21100;BME280;10708;50.824;4.408;2023-01-24T08:34:05;102789.63;;;2.07;100.00
21100;BME280;10708;50.824;4.408;2023-01-24T08:39:07;102799.28;;;2.11;100.00
21100;BME280;10708;50.824;4.408;2023-01-24T08:44:10;102795.84;;;2.12;100.00
21100;BME280;10708;50.824;4.408;2023-01-24T08:49:13;102804.38;;;2.08;100.00
21100;BME280;10708;50.824;4.408;2023-01-24T08:54:18;102808.78;;;2.11;100.00
21100;BME280;10708;50.824;4.408;2023-01-24T08:59:20;102802.63;;;2.07;100.00
21100;BME280;10708;50.824;4.408;2023-01-24T09:04:24;102808.66;;;2.06;100.00
21100;BME280;10708;50.824;4.408;2023-01-24T09:09:27;102811.44;;;2.12;100.00
21100;BME280;10708;50.824;4.408;2023-01-24T09:14:32;102821.19;;;2.18;100.00
21100;BME280;10708;50.824;4.408;2023-01-24T09:19:35;102827.28;;;2.20;100.00
21100;BME280;10708;50.824;4.408;2023-01-24T09:24:38;102830.19;;;2.28;100.00
21100;BME280;10708;50.824;4.408;2023-01-24T09:29:40;102826.84;;;2.32;100.00
21100;BME280;10708;50.824;4.408;2023-01-24T09:34:44;102829.59;;;2.36;100.00
21100;BME280;10708;50.824;4.408;2023-01-24T09:39:49;102827.78;;;2.34;100.00
21100;BME280;10708;50.824;4.408;2023-01-24T09:44:56;102831.25;;;2.34;100.00
21100;BME280;10708;50.824;4.408;2023-01-24T09:50:04;102837.47;;;2.38;100.00
21100;BME280;10708;50.824;4.408;2023-01-24T09:55:13;102830.75;;;2.44;100.00
21100;BME280;10708;50.824;4.408;2023-01-24T10:00:21;102836.06;;;2.47;100.00
21100;BME280;10708;50.824;4.408;2023-01-24T10:05:32;102832.50;;;2.45;100.00
21100;BME280;10708;50.824;4.408;2023-01-24T10:10:50;102825.53;;;2.44;100.00
21100;BME280;10708;50.824;4.408;2023-01-24T10:16:01;102825.47;;;2.43;100.00
21100;BME280;10708;50.824;4.408;2023-01-24T10:21:39;102837.59;;;2.42;100.00
21100;BME280;10708;50.824;4.408;2023-01-24T10:26:48;102837.28;;;2.33;100.00
21100;BME280;10708;50.824;4.408;2023-01-24T10:31:57;102833.66;;;2.28;100.00
21100;BME280;10708;50.824;4.408;2023-01-24T10:37:06;102834.06;;;2.15;100.00
21100;BME280;10708;50.824;4.408;2023-01-24T10:42:18;102838.69;;;2.23;100.00
21100;BME280;10708;50.824;4.408;2023-01-24T10:47:44;102832.84;;;2.29;100.00
21100;BME280;10708;50.824;4.408;2023-01-24T10:52:50;102839.69;;;2.27;100.00
21100;BME280;10708;50.824;4.408;2023-01-24T10:57:52;102835.75;;;2.38;100.00
21100;BME280;10708;50.824;4.408;2023-01-24T11:02:57;102826.47;;;2.21;100.00
21100;BME280;10708;50.824;4.408;2023-01-24T11:08:01;102828.88;;;2.15;100.00
21100;BME280;10708;50.824;4.408;2023-01-24T11:13:30;102826.47;;;2.21;100.00
21100;BME280;10708;50.824;4.408;2023-01-24T11:18:34;102823.28;;;2.28;100.00
21100;BME280;10708;50.824;4.408;2023-01-24T11:23:40;102831.97;;;2.29;100.00
21100;BME280;10708;50.824;4.408;2023-01-24T11:28:42;102814.47;;;2.25;100.00
21100;BME280;10708;50.824;4.408;2023-01-24T11:34:06;102817.69;;;2.17;100.00
21100;BME280;10708;50.824;4.408;2023-01-24T11:39:23;102800.38;;;2.18;100.00
21100;BME280;10708;50.824;4.408;2023-01-24T11:44:49;102818.91;;;2.27;100.00
21100;BME280;10708;50.824;4.408;2023-01-24T11:50:28;102815.59;;;2.33;100.00
21100;BME280;10708;50.824;4.408;2023-01-24T11:55:40;102809.94;;;2.44;100.00
21100;BME280;10708;50.824;4.408;2023-01-24T12:00:52;102796.28;;;2.51;100.00
21100;BME280;10708;50.824;4.408;2023-01-24T12:06:09;102801.00;;;2.63;100.00
21100;BME280;10708;50.824;4.408;2023-01-24T12:11:20;102786.28;;;2.64;100.00
21100;BME280;10708;50.824;4.408;2023-01-24T12:16:36;102780.63;;;2.77;100.00
21100;BME280;10708;50.824;4.408;2023-01-24T12:21:43;102771.34;;;2.85;100.00
21100;BME280;10708;50.824;4.408;2023-01-24T12:26:50;102770.34;;;2.81;100.00
21100;BME280;10708;50.824;4.408;2023-01-24T12:31:57;102756.09;;;2.69;100.00
21100;BME280;10708;50.824;4.408;2023-01-24T12:37:06;102748.19;;;2.66;100.00
21100;BME280;10708;50.824;4.408;2023-01-24T12:42:18;102757.00;;;2.69;100.00
21100;BME280;10708;50.824;4.408;2023-01-24T12:47:31;102742.34;;;2.73;100.00
21100;BME280;10708;50.824;4.408;2023-01-24T12:52:41;102743.31;;;2.76;100.00
21100;BME280;10708;50.824;4.408;2023-01-24T12:57:49;102738.25;;;2.81;100.00
21100;BME280;10708;50.824;4.408;2023-01-24T13:03:09;102734.84;;;2.83;100.00
21100;BME280;10708;50.824;4.408;2023-01-24T13:08:28;102729.03;;;2.92;100.00
21100;BME280;10708;50.824;4.408;2023-01-24T13:13:39;102720.38;;;2.93;100.00
21100;BME280;10708;50.824;4.408;2023-01-24T13:18:53;102710.88;;;2.93;100.00
21100;BME280;10708;50.824;4.408;2023-01-24T13:24:16;102718.78;;;2.96;100.00
21100;BME280;10708;50.824;4.408;2023-01-24T13:29:35;102726.75;;;3.03;100.00
21100;BME280;10708;50.824;4.408;2023-01-24T13:34:46;102717.97;;;2.69;100.00
21100;BME280;10708;50.824;4.408;2023-01-24T13:39:59;102726.16;;;2.83;100.00
21100;BME280;10708;50.824;4.408;2023-01-24T13:50:43;102721.56;;;2.74;100.00
21100;BME280;10708;50.824;4.408;2023-01-24T13:56:01;102723.38;;;2.77;100.00
21100;BME280;10708;50.824;4.408;2023-01-24T14:01:14;102719.84;;;2.75;100.00
21100;BME280;10708;50.824;4.408;2023-01-24T14:06:19;102717.91;;;2.68;100.00
21100;BME280;10708;50.824;4.408;2023-01-24T14:11:27;102728.22;;;2.65;100.00
21100;BME280;10708;50.824;4.408;2023-01-24T14:22:28;102729.75;;;2.58;100.00
21100;BME280;10708;50.824;4.408;2023-01-24T14:27:37;102726.81;;;2.47;100.00
21100;BME280;10708;50.824;4.408;2023-01-24T14:32:45;102720.13;;;2.55;100.00
21100;BME280;10708;50.824;4.408;2023-01-24T14:37:51;102724.97;;;2.45;100.00
21100;BME280;10708;50.824;4.408;2023-01-24T14:42:58;102726.88;;;2.50;100.00
21100;BME280;10708;50.824;4.408;2023-01-24T14:48:07;102739.88;;;2.49;100.00
21100;BME280;10708;50.824;4.408;2023-01-24T14:53:30;102739.88;;;2.49;100.00
21100;BME280;10708;50.824;4.408;2023-01-24T14:58:32;102730.38;;;2.51;100.00
21100;BME280;10708;50.824;4.408;2023-01-24T15:03:35;102724.50;;;2.56;100.00
21100;BME280;10708;50.824;4.408;2023-01-24T15:08:39;102723.66;;;2.57;100.00
21100;BME280;10708;50.824;4.408;2023-01-24T15:13:43;102723.22;;;2.44;100.00
21100;BME280;10708;50.824;4.408;2023-01-24T15:18:47;102728.13;;;2.35;100.00
21100;BME280;10708;50.824;4.408;2023-01-24T15:23:53;102725.28;;;2.27;100.00
21100;BME280;10708;50.824;4.408;2023-01-24T15:28:57;102730.53;;;2.29;100.00
21100;BME280;10708;50.824;4.408;2023-01-24T15:34:00;102732.03;;;2.22;100.00
21100;BME280;10708;50.824;4.408;2023-01-24T15:39:12;102735.22;;;2.13;100.00
21100;BME280;10708;50.824;4.408;2023-01-24T15:44:17;102748.34;;;2.16;100.00
21100;BME280;10708;50.824;4.408;2023-01-24T15:49:29;102743.78;;;2.09;100.00
21100;BME280;10708;50.824;4.408;2023-01-24T15:54:34;102739.47;;;2.11;100.00
21100;BME280;10708;50.824;4.408;2023-01-24T15:59:40;102729.00;;;2.08;100.00
21100;BME280;10708;50.824;4.408;2023-01-24T16:04:44;102740.31;;;2.10;100.00
21100;BME280;10708;50.824;4.408;2023-01-24T16:09:50;102732.78;;;2.18;100.00
21100;BME280;10708;50.824;4.408;2023-01-24T16:14:55;102734.44;;;2.16;100.00
21100;BME280;10708;50.824;4.408;2023-01-24T16:19:58;102739.69;;;2.17;100.00
21100;BME280;10708;50.824;4.408;2023-01-24T16:25:01;102739.00;;;2.23;100.00
21100;BME280;10708;50.824;4.408;2023-01-24T16:30:05;102745.03;;;2.22;100.00
21100;BME280;10708;50.824;4.408;2023-01-24T16:35:08;102747.81;;;2.27;100.00
21100;BME280;10708;50.824;4.408;2023-01-24T16:40:14;102746.88;;;2.25;100.00
21100;BME280;10708;50.824;4.408;2023-01-24T16:45:19;102753.66;;;2.21;100.00
21100;BME280;10708;50.824;4.408;2023-01-24T16:50:22;102743.38;;;2.24;100.00
21100;BME280;10708;50.824;4.408;2023-01-24T16:55:26;102743.31;;;2.22;100.00
21100;BME280;10708;50.824;4.408;2023-01-24T17:00:28;102745.47;;;2.09;100.00
21100;BME280;10708;50.824;4.408;2023-01-24T17:05:32;102749.94;;;2.13;100.00
21100;BME280;10708;50.824;4.408;2023-01-24T17:10:36;102752.28;;;2.05;100.00
21100;BME280;10708;50.824;4.408;2023-01-24T17:15:38;102752.00;;;2.23;100.00
21100;BME280;10708;50.824;4.408;2023-01-24T17:20:41;102758.88;;;2.21;100.00
21100;BME280;10708;50.824;4.408;2023-01-24T17:25:45;102760.44;;;2.16;100.00
21100;BME280;10708;50.824;4.408;2023-01-24T17:30:47;102764.59;;;2.11;100.00
21100;BME280;10708;50.824;4.408;2023-01-24T17:35:49;102764.81;;;2.17;100.00
21100;BME280;10708;50.824;4.408;2023-01-24T17:40:53;102764.66;;;2.12;100.00
21100;BME280;10708;50.824;4.408;2023-01-24T17:45:57;102766.06;;;2.03;100.00
21100;BME280;10708;50.824;4.408;2023-01-24T17:51:05;102773.91;;;2.04;100.00
21100;BME280;10708;50.824;4.408;2023-01-24T17:56:10;102772.66;;;1.93;100.00
21100;BME280;10708;50.824;4.408;2023-01-24T18:01:13;102775.25;;;1.93;100.00
21100;BME280;10708;50.824;4.408;2023-01-24T18:06:16;102777.84;;;1.93;100.00
21100;BME280;10708;50.824;4.408;2023-01-24T18:11:20;102771.88;;;1.96;100.00
21100;BME280;10708;50.824;4.408;2023-01-24T18:16:22;102770.31;;;2.01;100.00
21100;BME280;10708;50.824;4.408;2023-01-24T18:21:25;102773.03;;;2.04;100.00
21100;BME280;10708;50.824;4.408;2023-01-24T18:26:30;102766.69;;;1.96;100.00
21100;BME280;10708;50.824;4.408;2023-01-24T18:31:33;102764.09;;;1.96;100.00
21100;BME280;10708;50.824;4.408;2023-01-24T18:36:35;102766.81;;;1.99;100.00
21100;BME280;10708;50.824;4.408;2023-01-24T18:41:39;102764.22;;;2.00;100.00
21100;BME280;10708;50.824;4.408;2023-01-24T18:46:42;102762.38;;;1.96;100.00
21100;BME280;10708;50.824;4.408;2023-01-24T18:51:44;102759.78;;;1.96;100.00
21100;BME280;10708;50.824;4.408;2023-01-24T18:56:52;102748.09;;;2.10;100.00
21100;BME280;10708;50.824;4.408;2023-01-24T19:01:54;102753.41;;;2.13;100.00
21100;BME280;10708;50.824;4.408;2023-01-24T19:06:57;102748.97;;;2.09;100.00
21100;BME280;10708;50.824;4.408;2023-01-24T19:12:04;102751.66;;;2.12;100.00
21100;BME280;10708;50.824;4.408;2023-01-24T19:17:07;102753.16;;;2.06;100.00
21100;BME280;10708;50.824;4.408;2023-01-24T19:22:09;102758.72;;;1.91;100.00
21100;BME280;10708;50.824;4.408;2023-01-24T19:27:13;102766.47;;;1.90;100.00
21100;BME280;10708;50.824;4.408;2023-01-24T19:32:16;102768.09;;;1.86;100.00
21100;BME280;10708;50.824;4.408;2023-01-24T19:37:19;102771.50;;;1.85;100.00
21100;BME280;10708;50.824;4.408;2023-01-24T19:42:23;102767.91;;;1.81;100.00
21100;BME280;10708;50.824;4.408;2023-01-24T19:47:25;102761.81;;;1.81;100.00
21100;BME280;10708;50.824;4.408;2023-01-24T19:52:29;102761.81;;;1.81;100.00
21100;BME280;10708;50.824;4.408;2023-01-24T19:57:33;102759.91;;;1.75;100.00
21100;BME280;10708;50.824;4.408;2023-01-24T20:02:38;102754.66;;;1.74;100.00
21100;BME280;10708;50.824;4.408;2023-01-24T20:07:40;102755.38;;;1.70;100.00
21100;BME280;10708;50.824;4.408;2023-01-24T20:12:44;102760.75;;;1.74;100.00
21100;BME280;10708;50.824;4.408;2023-01-24T20:17:46;102759.22;;;1.81;100.00
21100;BME280;10708;50.824;4.408;2023-01-24T20:22:53;102768.53;;;1.74;100.00
21100;BME280;10708;50.824;4.408;2023-01-24T20:27:57;102768.66;;;1.77;100.00
21100;BME280;10708;50.824;4.408;2023-01-24T20:33:00;102776.38;;;1.76;100.00
21100;BME280;10708;50.824;4.408;2023-01-24T20:38:02;102778.88;;;1.73;100.00
21100;BME280;10708;50.824;4.408;2023-01-24T20:43:06;102782.16;;;1.67;100.00
21100;BME280;10708;50.824;4.408;2023-01-24T20:48:09;102790.59;;;1.62;100.00
21100;BME280;10708;50.824;4.408;2023-01-24T20:53:11;102779.31;;;1.61;100.00
21100;BME280;10708;50.824;4.408;2023-01-24T20:58:15;102773.78;;;1.52;100.00
21100;BME280;10708;50.824;4.408;2023-01-24T21:03:17;102775.63;;;1.55;100.00
21100;BME280;10708;50.824;4.408;2023-01-24T21:08:20;102775.69;;;1.56;100.00
21100;BME280;10708;50.824;4.408;2023-01-24T21:13:24;102781.88;;;1.60;100.00
21100;BME280;10708;50.824;4.408;2023-01-24T21:18:26;102784.56;;;1.63;100.00
21100;BME280;10708;50.824;4.408;2023-01-24T21:23:29;102776.78;;;1.63;100.00
21100;BME280;10708;50.824;4.408;2023-01-24T21:28:34;102785.56;;;1.66;100.00
21100;BME280;10708;50.824;4.408;2023-01-24T21:33:36;102780.69;;;1.52;100.00
21100;BME280;10708;50.824;4.408;2023-01-24T21:38:39;102789.50;;;1.55;100.00
21100;BME280;10708;50.824;4.408;2023-01-24T21:43:43;102784.41;;;1.58;100.00
21100;BME280;10708;50.824;4.408;2023-01-24T21:48:46;102773.19;;;1.59;100.00
21100;BME280;10708;50.824;4.408;2023-01-24T21:54:11;102773.44;;;1.43;100.00
21100;BME280;10708;50.824;4.408;2023-01-24T21:59:15;102771.88;;;1.46;100.00
21100;BME280;10708;50.824;4.408;2023-01-24T22:04:19;102770.25;;;1.50;100.00
21100;BME280;10708;50.824;4.408;2023-01-24T22:09:23;102772.31;;;1.59;100.00
21100;BME280;10708;50.824;4.408;2023-01-24T22:14:28;102774.09;;;1.60;100.00
21100;BME280;10708;50.824;4.408;2023-01-24T22:19:38;102763.31;;;1.49;100.00
21100;BME280;10708;50.824;4.408;2023-01-24T22:24:48;102768.31;;;1.44;100.00
21100;BME280;10708;50.824;4.408;2023-01-24T22:29:56;102756.97;;;1.42;100.00
21100;BME280;10708;50.824;4.408;2023-01-24T22:34:59;102755.53;;;1.51;100.00
21100;BME280;10708;50.824;4.408;2023-01-24T22:40:02;102742.75;;;1.55;100.00
21100;BME280;10708;50.824;4.408;2023-01-24T22:45:07;102739.25;;;1.55;100.00
21100;BME280;10708;50.824;4.408;2023-01-24T22:50:10;102737.22;;;1.46;100.00
21100;BME280;10708;50.824;4.408;2023-01-24T22:55:13;102738.81;;;1.42;100.00
21100;BME280;10708;50.824;4.408;2023-01-24T23:00:17;102735.81;;;1.32;100.00
21100;BME280;10708;50.824;4.408;2023-01-24T23:05:19;102733.44;;;1.14;100.00
21100;BME280;10708;50.824;4.408;2023-01-24T23:10:22;102724.41;;;1.27;100.00
21100;BME280;10708;50.824;4.408;2023-01-24T23:15:26;102728.28;;;1.38;100.00
21100;BME280;10708;50.824;4.408;2023-01-24T23:20:46;102713.97;;;1.25;100.00
21100;BME280;10708;50.824;4.408;2023-01-24T23:26:05;102706.72;;;1.17;100.00
21100;BME280;10708;50.824;4.408;2023-01-24T23:31:11;102713.75;;;1.19;100.00
21100;BME280;10708;50.824;4.408;2023-01-24T23:36:14;102712.13;;;1.23;100.00
21100;BME280;10708;50.824;4.408;2023-01-24T23:41:16;102700.97;;;1.25;100.00
21100;BME280;10708;50.824;4.408;2023-01-24T23:46:20;102703.44;;;1.22;100.00
21100;BME280;10708;50.824;4.408;2023-01-24T23:51:22;102696.22;;;1.14;100.00
21100;BME280;10708;50.824;4.408;2023-01-24T23:56:25;102703.25;;;1.16;100.00
